createdAt,value
2019-05-30T00:06:33.818Z,99688.34
2019-05-30T00:09:00.894Z,99686.86
2019-05-30T00:11:27.653Z,99693.05
2019-05-30T00:13:54.702Z,99712.53
2019-05-30T00:57:21.238Z,99706.34
2019-05-30T00:59:48.072Z,99701.86
2019-05-30T01:02:14.999Z,99707.83
2019-05-30T01:04:51.753Z,99708.67
2019-05-30T01:07:18.444Z,99701.64
2019-05-30T01:09:45.392Z,99698.50
2019-05-30T01:12:12.998Z,99700.67
2019-05-30T01:14:47.702Z,99695.34
2019-05-30T01:17:14.285Z,99698.86
2019-05-30T01:19:41.115Z,99687.34
2019-05-30T01:22:08.392Z,99692.14
2019-05-30T01:24:47.767Z,99688.31
2019-05-30T01:31:16.951Z,99688.31
2019-05-30T01:33:43.783Z,99693.10
2019-05-30T01:36:11.406Z,99690.38
2019-05-30T01:38:45.028Z,99697.25
2019-05-30T01:41:54.648Z,99691.86
2019-05-30T01:44:21.120Z,99690.83
2019-05-30T01:46:47.692Z,99687.16
2019-05-30T01:49:27.869Z,99686.68
2019-05-30T01:52:13.296Z,99692.83
2019-05-30T01:54:40.005Z,99698.67
2019-05-30T01:57:06.815Z,99693.44
2019-05-30T01:59:33.566Z,99692.73
2019-05-30T02:02:00.889Z,99699.03
2019-05-30T02:04:27.793Z,99696.03
2019-05-30T02:06:54.358Z,99697.48
2019-05-30T02:09:21.031Z,99701.63
2019-05-30T02:11:47.854Z,99700.03
2019-05-30T02:14:14.440Z,99697.63
2019-05-30T02:16:41.144Z,99702.97
2019-05-30T02:19:10.584Z,99705.30
2019-05-30T02:21:37.316Z,99703.81
2019-05-30T02:24:04.058Z,99709.15
2019-05-30T02:26:30.814Z,99704.87
2019-05-30T02:28:57.886Z,99709.56
2019-05-30T02:31:38.346Z,99709.56
2019-05-30T02:33:52.961Z,99717.41
2019-05-30T02:36:19.524Z,99717.30
2019-05-30T02:38:46.277Z,99720.59
2019-05-30T02:41:13.036Z,99716.23
2019-05-30T02:47:22.642Z,99713.71
2019-05-30T02:49:49.458Z,99728.86
2019-05-30T02:52:16.295Z,99724.30
2019-05-30T02:54:49.755Z,99723.45
2019-05-30T02:57:16.299Z,99729.08
2019-05-30T02:59:42.933Z,99728.50
2019-05-30T03:02:28.348Z,99730.05
2019-05-30T03:04:55.065Z,99734.20
2019-05-30T03:08:03.982Z,99736.38
2019-05-30T05:01:56.609Z,99817.14
2019-05-30T05:04:23.311Z,99817.20
2019-05-30T05:06:49.948Z,99826.60
2019-05-30T05:09:17.980Z,99821.27
2019-05-30T05:11:44.942Z,99826.52
2019-05-30T05:14:12.314Z,99830.03
2019-05-30T05:16:39.076Z,99838.16
2019-05-30T05:19:05.833Z,99838.05
2019-05-30T05:21:32.448Z,99837.42
2019-05-30T05:23:59.285Z,99838.70
2019-05-30T05:26:25.896Z,99843.82
2019-05-30T05:28:52.545Z,99843.48
2019-05-30T05:31:20.316Z,99844.11
2019-05-30T05:33:56.667Z,99847.96
2019-05-30T05:36:16.850Z,99849.20
2019-05-30T05:38:43.834Z,99850.93
2019-05-30T05:41:10.500Z,99853.91
2019-05-30T05:43:37.321Z,99859.31
2019-05-30T05:46:04.128Z,99856.03
2019-05-30T05:48:30.866Z,99865.21
2019-05-30T05:50:57.629Z,99866.97
2019-05-30T05:53:25.147Z,99873.17
2019-05-30T05:55:51.976Z,99868.52
2019-05-30T05:58:19.151Z,99861.73
2019-05-30T06:00:45.929Z,99863.17
2019-05-30T06:03:12.513Z,99872.47
2019-05-30T06:05:52.228Z,99874.08
2019-05-30T06:08:07.851Z,99869.23
2019-05-30T06:10:34.698Z,99876.20
2019-05-30T06:13:01.410Z,99871.50
2019-05-30T06:15:29.038Z,99871.72
2019-05-30T06:17:55.734Z,99872.58
2019-05-30T06:20:23.344Z,99879.72
2019-05-30T06:22:50.110Z,99882.72
2019-05-30T06:25:19.034Z,99875.41
2019-05-30T06:27:46.486Z,99872.91
2019-05-30T06:30:13.380Z,99874.19
2019-05-30T06:32:40.524Z,99885.91
2019-05-30T06:35:07.864Z,99888.80
2019-05-30T06:37:34.755Z,99884.19
2019-05-30T06:40:01.410Z,99880.91
2019-05-30T06:42:28.290Z,99882.17
2019-05-30T06:44:55.152Z,99888.50
2019-05-30T06:47:22.200Z,99886.48
2019-05-30T06:49:49.095Z,99888.39
2019-05-30T06:52:16.117Z,99891.93
2019-05-30T06:54:42.847Z,99890.68
2019-05-30T06:57:09.589Z,99895.33
2019-05-30T06:59:36.116Z,99891.56
2019-05-30T07:02:03.186Z,99897.71
2019-05-30T07:04:48.986Z,99896.66
2019-05-30T07:06:58.906Z,99897.66
2019-05-30T07:09:26.795Z,99901.27
2019-05-30T07:11:53.893Z,99904.56
2019-05-30T07:14:20.974Z,99900.36
2019-05-30T07:16:47.712Z,99900.59
2019-05-30T07:19:14.250Z,99903.63
2019-05-30T07:21:41.071Z,99905.84
2019-05-30T07:24:07.806Z,99910.48
2019-05-30T07:26:34.436Z,99911.81
2019-05-30T07:29:01.105Z,99917.63
2019-05-30T07:31:28.383Z,99916.23
2019-05-30T07:33:55.032Z,99913.69
2019-05-30T07:36:21.782Z,99908.73
2019-05-30T07:38:48.549Z,99910.63
2019-05-30T07:41:15.182Z,99914.47
2019-05-30T07:43:41.796Z,99916.23
2019-05-30T07:46:08.711Z,99918.59
2019-05-30T07:48:35.378Z,99917.27
2019-05-30T07:51:03.968Z,99919.78
2019-05-30T07:53:33.432Z,99922.73
2019-05-30T07:56:00.051Z,99925.17
2019-05-30T07:58:27.049Z,99928.85
2019-05-30T08:00:54.026Z,99935.11
2019-05-30T08:03:20.678Z,99935.70
2019-05-30T08:05:47.363Z,99932.33
2019-05-30T08:08:13.986Z,99941.42
2019-05-30T08:10:40.657Z,99944.09
2019-05-30T08:13:07.245Z,99935.39
2019-05-30T08:15:36.266Z,99943.38
2019-05-30T08:18:02.730Z,99951.23
2019-05-30T08:20:29.728Z,99951.09
2019-05-30T08:22:56.459Z,99955.73
2019-05-30T08:25:23.040Z,99953.14
2019-05-30T08:27:49.817Z,99960.73
2019-05-30T08:30:18.842Z,99963.53
2019-05-30T08:32:45.411Z,99970.23
2019-05-30T08:35:13.277Z,99965.13
2019-05-30T08:37:40.224Z,99966.24
2019-05-30T08:40:09.491Z,99961.05
2019-05-30T08:42:37.925Z,99968.80
2019-05-30T08:45:09.456Z,99970.37
2019-05-30T08:47:34.581Z,99976.05
2019-05-30T08:50:01.545Z,99975.70
2019-05-30T08:52:28.267Z,99984.22
2019-05-30T08:54:54.902Z,99979.22
2019-05-30T08:57:21.537Z,99970.70
2019-05-30T08:59:48.006Z,99976.11
2019-05-30T09:02:15.442Z,99979.20
2019-05-30T09:04:42.056Z,99973.83
2019-05-30T09:07:08.763Z,99974.91
2019-05-30T09:09:36.091Z,99982.20
2019-05-30T09:12:03.403Z,99981.06
2019-05-30T09:14:30.231Z,99981.27
2019-05-30T09:16:57.162Z,99991.44
2019-05-30T09:19:23.718Z,99982.94
2019-05-30T09:21:50.702Z,99983.87
2019-05-30T09:24:17.567Z,99982.85
2019-05-30T09:26:48.356Z,99978.95
2019-05-30T09:29:13.077Z,99982.31
2019-05-30T09:31:41.156Z,99982.59
2019-05-30T09:34:11.983Z,99982.83
2019-05-30T09:36:39.411Z,99987.30
2019-05-30T09:39:07.373Z,99984.98
2019-05-30T09:41:36.586Z,99987.89
2019-05-30T09:44:03.848Z,99984.05
2019-05-30T09:46:30.572Z,99990.41
2019-05-30T09:48:57.304Z,99992.97
2019-05-30T09:51:23.949Z,99988.73
2019-05-30T09:53:50.532Z,99992.02
2019-05-30T09:56:17.101Z,99994.01
2019-05-30T09:58:44.041Z,99994.43
2019-05-30T10:01:11.091Z,99999.70
2019-05-30T10:03:38.733Z,99998.22
2019-05-30T10:06:05.504Z,100000.96
2019-05-30T10:08:32.067Z,99995.99
2019-05-30T10:10:58.998Z,100000.14
2019-05-30T10:13:26.360Z,99999.30
2019-05-30T10:15:53.322Z,99996.29
2019-05-30T10:18:20.106Z,99994.35
2019-05-30T10:20:48.147Z,99999.95
2019-05-30T10:23:17.922Z,99995.99
2019-05-30T10:25:45.953Z,99997.25
2019-05-30T10:28:12.926Z,100001.03
2019-05-30T10:30:39.774Z,100000.33
2019-05-30T10:33:08.175Z,100000.17
2019-05-30T10:35:34.997Z,100000.86
2019-05-30T10:38:01.880Z,100003.20
2019-05-30T10:40:32.113Z,100002.83
2019-05-30T10:42:58.220Z,100000.10
2019-05-30T10:45:26.717Z,100004.66
2019-05-30T10:47:53.791Z,99996.88
2019-05-30T10:50:21.182Z,99991.70
2019-05-30T10:52:49.293Z,99995.25
2019-05-30T10:55:17.840Z,99996.23
2019-05-30T10:57:45.187Z,99990.34
2019-05-30T11:00:20.102Z,99992.50
2019-05-30T11:02:47.836Z,99988.86
2019-05-30T11:05:16.735Z,99991.75
2019-05-30T11:08:06.260Z,99991.80
2019-05-30T11:10:37.719Z,99991.87
2019-05-30T11:13:12.346Z,99992.43
2019-05-30T11:15:39.287Z,99994.05
2019-05-30T11:18:06.182Z,99994.45
2019-05-30T11:20:34.160Z,99990.16
2019-05-30T11:23:00.900Z,99996.64
2019-05-30T11:25:27.653Z,99997.89
2019-05-30T11:27:54.817Z,99998.28
2019-05-30T11:30:22.048Z,99997.99
2019-05-30T11:32:49.018Z,99999.16
2019-05-30T11:35:15.900Z,99999.38
2019-05-30T11:37:43.021Z,100004.41
2019-05-30T11:40:09.840Z,100006.11
2019-05-30T11:42:36.793Z,100004.55
2019-05-30T11:45:06.877Z,99998.50
2019-05-30T11:47:33.773Z,99998.82
2019-05-30T11:50:00.497Z,100002.45
2019-05-30T11:52:26.980Z,100006.84
2019-05-30T11:54:54.176Z,100009.97
2019-05-30T11:57:21.104Z,100011.92
2019-05-30T11:59:47.681Z,100010.22
2019-05-30T12:02:14.675Z,100008.83
2019-05-30T12:04:42.172Z,100014.18
2019-05-30T12:07:09.356Z,100010.47
2019-05-30T12:09:41.863Z,100010.30
2019-05-30T12:12:08.688Z,100005.59
2019-05-30T12:14:35.619Z,100012.09
2019-05-30T12:17:02.355Z,100012.86
2019-05-30T12:19:29.143Z,100012.40
2019-05-30T12:21:55.878Z,100010.55
2019-05-30T12:24:22.656Z,100010.99
2019-05-30T12:26:49.403Z,100009.09
2019-05-30T12:29:16.334Z,100009.75
2019-05-30T12:31:42.952Z,100008.65
2019-05-30T12:34:09.524Z,100012.98
2019-05-30T12:36:36.516Z,100009.61
2019-05-30T12:39:05.588Z,100010.56
2019-05-30T12:41:32.354Z,100007.39
2019-05-30T12:43:59.178Z,100008.28
2019-05-30T12:46:25.977Z,100003.78
2019-05-30T12:48:53.282Z,100004.82
2019-05-30T12:51:20.118Z,100010.39
2019-05-30T12:53:46.737Z,100008.83
2019-05-30T12:56:13.473Z,100008.10
2019-05-30T12:58:40.081Z,100005.30
2019-05-30T13:01:07.059Z,100009.16
2019-05-30T13:03:34.125Z,100010.67
2019-05-30T13:06:01.215Z,100005.34
2019-05-30T13:08:27.866Z,100005.86
2019-05-30T13:10:55.539Z,100002.11
2019-05-30T13:13:22.471Z,100006.86
2019-05-30T13:15:49.084Z,100004.44
2019-05-30T13:18:15.989Z,100002.91
2019-05-30T13:20:42.775Z,99999.78
2019-05-30T13:23:09.413Z,99990.25
2019-05-30T13:25:35.967Z,99993.36
2019-05-30T13:28:06.277Z,99995.44
2019-05-30T13:30:32.188Z,99994.34
2019-05-30T13:32:58.804Z,99992.84
2019-05-30T13:35:25.846Z,99991.46
2019-05-30T13:37:52.659Z,99981.53
2019-05-30T13:40:25.387Z,99983.05
2019-05-30T13:42:48.798Z,99983.72
2019-05-30T13:45:16.313Z,99981.91
2019-05-30T13:47:43.017Z,99979.91
2019-05-30T13:50:14.019Z,99987.55
2019-05-30T13:52:41.197Z,99978.19
2019-05-30T13:55:10.198Z,99987.47
2019-05-30T13:57:37.371Z,99992.52
2019-05-30T14:00:08.608Z,99995.98
2019-05-30T14:02:35.405Z,99992.45
2019-05-30T14:05:06.332Z,99990.08
2019-05-30T14:07:32.901Z,99988.45
2019-05-30T14:10:00.273Z,99991.87
2019-05-30T14:12:27.054Z,99987.16
2019-05-30T14:14:53.693Z,99987.09
2019-05-30T14:17:20.215Z,99990.37
2019-05-30T14:19:46.879Z,99986.61
2019-05-30T14:22:13.404Z,99993.37
2019-05-30T14:24:39.959Z,99996.75
2019-05-30T14:27:07.634Z,100005.72
2019-05-30T14:29:34.502Z,100000.16
2019-05-30T14:32:02.301Z,99998.96
2019-05-30T14:34:29.149Z,99993.61
2019-05-30T14:36:55.833Z,99999.13
2019-05-30T14:39:22.315Z,99998.90
2019-05-30T14:41:48.979Z,99995.80
2019-05-30T14:44:15.621Z,99997.33
2019-05-30T14:46:42.431Z,99993.03
2019-05-30T14:49:09.139Z,99991.70
2019-05-30T14:51:35.881Z,99990.20
2019-05-30T14:54:02.481Z,99993.91
2019-05-30T14:56:29.278Z,99982.93
2019-05-30T14:58:55.911Z,99982.11
2019-05-30T15:01:22.523Z,99987.27
2019-05-30T15:03:49.202Z,99987.30
2019-05-30T15:06:17.943Z,99978.73
2019-05-30T15:08:45.026Z,99988.02
2019-05-30T15:11:11.816Z,99978.02
2019-05-30T15:13:38.796Z,99978.13
2019-05-30T15:16:06.696Z,99977.75
2019-05-30T15:18:33.486Z,99969.77
2019-05-30T15:21:00.074Z,99977.03
2019-05-30T15:23:26.679Z,99975.56
2019-05-30T15:25:53.404Z,99979.83
2019-05-30T15:28:19.927Z,99969.70
2019-05-30T15:30:46.436Z,99971.91
2019-05-30T15:33:14.430Z,99971.46
2019-05-30T15:35:41.273Z,99973.89
2019-05-30T15:38:08.765Z,99967.84
2019-05-30T15:40:35.530Z,99970.77
2019-05-30T15:43:02.309Z,99967.77
2019-05-30T15:45:29.373Z,99966.20
2019-05-30T15:47:56.148Z,99962.82
2019-05-30T15:50:23.085Z,99959.69
2019-05-30T15:52:50.066Z,99956.04
2019-05-30T15:55:17.459Z,99960.88
2019-05-30T15:57:44.594Z,99961.36
2019-05-30T16:00:14.052Z,99952.42
2019-05-30T16:02:41.339Z,99954.09
2019-05-30T16:05:08.664Z,99955.91
2019-05-30T16:07:36.836Z,99948.27
2019-05-30T16:10:06.011Z,99953.56
2019-05-30T16:12:32.866Z,99954.52
2019-05-30T16:18:43.957Z,99960.83
2019-05-30T16:21:56.025Z,99966.65
2019-05-30T16:24:42.325Z,99946.20
2019-05-30T16:27:09.199Z,99950.35
2019-05-30T16:29:36.005Z,99950.19
2019-05-30T16:32:34.324Z,99948.34
2019-05-30T16:35:01.359Z,99952.20
2019-05-30T16:37:28.134Z,99956.36
2019-05-30T16:40:05.309Z,99954.38
2019-05-30T16:42:23.994Z,99957.15
2019-05-30T16:44:51.089Z,99960.48
2019-05-30T16:47:18.397Z,99954.41
2019-05-30T16:49:45.105Z,99956.70
2019-05-30T16:52:11.704Z,99962.02
2019-05-30T16:54:38.666Z,99956.46
2019-05-30T16:57:05.330Z,99963.96
2019-05-30T16:59:32.278Z,99961.81
2019-05-30T17:01:59.202Z,99959.62
2019-05-30T17:04:27.165Z,99964.13
2019-05-30T17:06:55.202Z,99963.91
2019-05-30T17:09:21.837Z,99969.01
2019-05-30T17:11:48.679Z,99968.90
2019-05-30T17:14:15.602Z,99979.29
2019-05-30T17:16:43.066Z,99972.55
2019-05-30T17:19:09.802Z,99968.97
2019-05-30T17:21:36.639Z,99974.98
2019-05-30T17:24:03.363Z,99969.33
2019-05-30T17:26:30.268Z,99972.94
2019-05-30T17:28:56.949Z,99970.55
2019-05-30T17:31:24.027Z,99978.75
2019-05-30T17:33:50.638Z,99986.49
2019-05-30T17:36:18.095Z,99991.81
2019-05-30T17:38:44.972Z,99986.25
2019-05-30T17:41:11.741Z,99988.21
2019-05-30T17:43:38.612Z,99989.03
2019-05-30T17:46:07.791Z,99986.63
2019-05-30T17:48:33.694Z,99986.64
2019-05-30T17:51:00.591Z,99996.41
2019-05-30T17:53:27.984Z,100001.47
2019-05-30T17:55:54.786Z,99998.82
2019-05-30T17:58:21.910Z,100005.20
2019-05-30T18:00:48.711Z,100006.41
2019-05-30T18:03:15.535Z,100004.61
2019-05-30T18:05:42.262Z,100004.36
2019-05-30T18:08:09.115Z,100011.84
2019-05-30T18:10:35.814Z,100006.06
2019-05-30T18:13:02.666Z,100014.89
2019-05-30T18:15:31.994Z,100009.92
2019-05-30T18:17:58.326Z,100015.59
2019-05-30T18:20:25.358Z,100014.14
2019-05-30T18:22:52.073Z,100013.31
2019-05-30T18:25:19.303Z,100015.37
2019-05-30T18:27:46.044Z,100013.06
2019-05-30T18:30:14.861Z,100019.83
2019-05-30T18:32:41.565Z,100016.92
2019-05-30T18:35:08.932Z,100023.77
2019-05-30T18:37:36.938Z,100028.73
2019-05-30T18:40:06.027Z,100025.13
2019-05-30T18:42:33.708Z,100032.50
2019-05-30T18:45:00.782Z,100032.38
2019-05-30T18:47:27.424Z,100033.31
2019-05-30T18:49:54.065Z,100038.03
2019-05-30T18:52:20.879Z,100036.22
2019-05-30T18:54:47.615Z,100031.86
2019-05-30T18:57:14.306Z,100037.55
2019-05-30T18:59:41.304Z,100045.52
2019-05-30T19:02:08.034Z,100048.77
2019-05-30T19:04:36.405Z,100050.10
2019-05-30T19:07:03.537Z,100047.58
2019-05-30T19:09:31.914Z,100052.03
2019-05-30T19:11:58.638Z,100053.01
2019-05-30T19:14:29.422Z,100068.47
2019-05-30T19:16:54.034Z,100056.52
2019-05-30T19:19:20.661Z,100063.88
2019-05-30T19:21:47.356Z,100065.44
2019-05-30T19:24:14.007Z,100061.70
2019-05-30T19:26:40.637Z,100061.92
2019-05-30T19:29:07.389Z,100063.38
2019-05-30T19:31:34.772Z,100066.54
2019-05-30T19:34:01.613Z,100063.50
2019-05-30T19:36:28.811Z,100064.11
2019-05-30T19:38:55.916Z,100065.31
2019-05-30T19:41:22.609Z,100064.96
2019-05-30T19:43:49.230Z,100070.02
2019-05-30T19:46:15.762Z,100071.34
2019-05-30T19:48:44.958Z,100068.81
2019-05-30T19:51:11.631Z,100070.02
2019-05-30T19:53:39.144Z,100073.88
2019-05-30T19:56:06.117Z,100068.34
2019-05-30T19:58:33.408Z,100072.41
2019-05-30T20:01:00.334Z,100059.13
2019-05-30T20:03:36.537Z,100061.80
2019-05-30T20:05:55.823Z,100060.59
2019-05-30T20:08:22.834Z,100060.72
2019-05-30T20:10:49.431Z,100056.00
2019-05-30T20:13:16.299Z,100058.41
2019-05-30T20:15:43.113Z,100059.98
2019-05-30T20:18:09.723Z,100064.70
2019-05-30T20:20:50.690Z,100059.39
2019-05-30T20:23:05.204Z,100062.65
2019-05-30T20:25:32.688Z,100066.28
2019-05-30T20:27:59.502Z,100057.08
2019-05-30T20:30:27.594Z,100062.90
2019-05-30T20:32:54.165Z,100071.59
2019-05-30T20:35:21.283Z,100067.02
2019-05-30T20:37:47.980Z,100060.97
2019-05-30T20:40:15.144Z,100067.96
2019-05-30T20:42:44.504Z,100066.63
2019-05-30T20:45:11.972Z,100064.95
2019-05-30T20:47:39.365Z,100063.98
2019-05-30T20:50:10.747Z,100071.00
2019-05-30T20:52:40.351Z,100083.89
2019-05-30T20:55:06.954Z,100067.14
2019-05-30T20:57:34.338Z,100064.70
2019-05-30T21:00:01.751Z,100069.42
2019-05-30T21:02:29.456Z,100077.26
2019-05-30T21:04:56.579Z,100075.33
2019-05-30T21:07:24.065Z,100071.00
2019-05-30T21:09:51.123Z,100067.49
2019-05-30T21:12:55.171Z,100067.36
2019-05-30T21:15:21.919Z,100065.95
2019-05-30T21:17:50.605Z,100061.33
2019-05-30T21:20:17.737Z,100070.02
2019-05-30T21:22:44.779Z,100062.56
2019-05-30T21:25:12.098Z,100067.49
2019-05-30T21:27:39.144Z,100066.29
2019-05-30T21:30:06.789Z,100065.44
2019-05-30T21:32:35.242Z,100064.58
2019-05-30T21:35:04.962Z,100071.22
2019-05-30T21:37:34.764Z,100077.98
2019-05-30T21:40:01.534Z,100077.25
2019-05-30T21:42:28.125Z,100077.97
2019-05-30T21:44:54.767Z,100075.45
2019-05-30T21:47:21.434Z,100075.80
2019-05-30T21:49:49.215Z,100069.88
2019-05-30T21:52:16.382Z,100067.36
2019-05-30T21:54:43.801Z,100072.80
2019-05-30T21:57:10.675Z,100066.98
2019-05-30T21:59:37.341Z,100072.79
2019-05-30T22:02:04.810Z,100071.33
2019-05-30T22:04:32.472Z,100067.95
2019-05-30T22:06:59.272Z,100065.64
2019-05-30T22:09:26.030Z,100059.38
2019-05-30T22:11:54.255Z,100058.41
2019-05-30T22:14:23.004Z,100055.75
2019-05-30T22:16:50.221Z,100058.79
2019-05-30T22:19:17.258Z,100062.90
2019-05-30T22:21:44.200Z,100062.65
2019-05-30T22:24:11.523Z,100063.03
2019-05-30T22:26:38.352Z,100059.87
2019-05-30T22:29:05.148Z,100065.09
2019-05-30T22:31:32.084Z,100064.58
2019-05-30T22:33:58.967Z,100064.70
2019-05-30T22:36:25.729Z,100062.65
2019-05-30T22:38:53.257Z,100065.18
2019-05-30T22:41:20.102Z,100061.58
2019-05-30T22:43:46.700Z,100062.78
2019-05-30T22:46:13.444Z,100063.38
2019-05-30T22:48:40.164Z,100064.84
2019-05-30T22:51:07.341Z,100057.94
2019-05-30T22:53:34.245Z,100064.61
2019-05-30T22:56:01.035Z,100062.78
2019-05-30T22:58:27.608Z,100050.61
2019-05-30T23:00:54.214Z,100057.13
2019-05-30T23:03:20.736Z,100058.33
2019-05-30T23:05:47.335Z,100055.92
2019-05-30T23:08:14.170Z,100047.23
2019-05-30T23:10:40.870Z,100047.10
2019-05-30T23:13:08.010Z,100050.14
2019-05-30T23:15:34.762Z,100053.02
2019-05-30T23:18:01.540Z,100052.06
2019-05-30T23:20:28.196Z,100051.46
2019-05-30T23:22:55.200Z,100047.22
2019-05-30T23:25:22.092Z,100053.27
2019-05-30T23:27:49.501Z,100054.97
2019-05-30T23:30:17.097Z,100058.95
2019-05-30T23:32:43.708Z,100053.27
2019-05-30T23:35:10.503Z,100047.95
2019-05-30T23:37:37.208Z,100046.02
2019-05-30T23:40:04.738Z,100046.27
2019-05-30T23:42:31.320Z,100043.02
2019-05-30T23:44:58.030Z,100040.70
2019-05-30T23:47:24.541Z,100043.27
2019-05-30T23:49:51.784Z,100043.73
2019-05-30T23:52:18.655Z,100044.09
2019-05-30T23:54:45.560Z,100039.88
2019-05-30T23:57:12.137Z,100045.67
2019-05-30T23:59:38.722Z,100039.98
